Terminal Aerodrome Forecast
Issued by NWS Des Moines, IA

Home | Current Version | Previous Version | Text Only | Print | Product List | Glossary On
Versions: 1 2 3 4 5 6 7 8 9 10 11 12
000
FTUS43 KDMX 241128
TAFDSM
TAF
KDSM 241128Z 2412/2512 20012G18KT P6SM SKC
     FM241600 24015G22KT P6SM SKC
     FM241900 29016G23KT P6SM FEW250
     FM250300 31010G16KT P6SM FEW250=

USA.gov is the U.S. government's official web portal to all federal, state and local government web resources and services.